<< Go Back

Run with Honor
Date: Apr. 27, 2014
Results by Everal Race Management
Contact for Race Timing

Run with Honor 5k

5k

Age Group Results

April 27, 2014

Results Provided by Everal Race Management

Male Overall Winners
Total
Place Name City Bib No Age Overall Time Pace
1 Jorge Tello Farmington MI 408 29 1 17:42 5:43/M


Female Overall Winners
Total
Place Name City Bib No Age Overall Time Pace
1 Laura Cain 537 35 18 23:51 7:42/M


Male Masters Winners
Total
Place Name City Bib No Age Overall Time Pace
1 John Graham Tekonsha MI 433 41 2 18:39 6:01/M


Female Masters Winners
Total
Place Name City Bib No Age Overall Time Pace
1 Sheryl Felice Belleville MI 398 50 34 25:56 8:22/M


Male 14 & under
Total
Place Name City Bib No Age Overall Time Pace
1 Billy Brinker Rockwood MI 463 13 8 21:21 6:53/M
2 Chaz Phipps Browstown MI 515 13 14 22:50 7:22/M
3 Ayden Roupe New Boston MI 534 10 37 26:02 8:24/M
4 Benjamen Conroy 529 9 63 28:16 9:07/M
5 Jack Vandewal 528 11 76 30:10 9:44/M
6 Isaac Trombetta 536 8 79 30:17 9:46/M
7 Ethan Sajdak Trenton MI 422 11 86 30:25 9:49/M
8 Jordin Kennedy 523 14 98 32:23 10:27/M
9 Colby Kramp Allen Park MI 468 7 102 33:01 10:39/M


Female 14 & under
Total
Place Name City Bib No Age Overall Time Pace
1 Madelyn Zurawski Brownstown MI 443 10 104 33:04 10:40/M
2 Brittnee McDonald Taylor MI 416 14 161 56:45 18:18/M


Male 15 to 19
Total
Place Name City Bib No Age Overall Time Pace
1 Brent Melhorn Grosse Ile MI 504 16 13 22:44 7:20/M
2 Roger Siders Jr Allen Park MI 497 18 16 23:19 7:31/M
3 Jacob Empson 526 19 29 25:08 8:06/M
4 Joseph Schafer 531 18 77 30:13 9:45/M
5 Gerald Defrank Flat Rock MI 532 16 120 36:20 11:43/M


Female 15 to 19
Total
Place Name City Bib No Age Overall Time Pace
1 Brittany Cina 530 17 22 24:20 7:51/M


Male 20 to 24
Total
Place Name City Bib No Age Overall Time Pace
1 Andrew Snavely White Lake MI 419 21 27 24:54 8:02/M
2 Ryan Parise Woodhaven MI 381 24 35 25:59 8:23/M
3 Erick Lehman Lincoln Park MI 424 20 40 26:33 8:34/M
4 Timothy O'Neil Farmington Hills M 505 24 116 35:28 11:26/M


Female 20 to 24
Total
Place Name City Bib No Age Overall Time Pace
1 Robyn Davis Canton MI 198 20 51 27:21 8:49/M
2 Rebecca Kardel Ypsilanti MI 418 23 58 27:53 9:00/M
3 Jessica Lumley Livonia MI 508 20 65 28:18 9:08/M
4 Samantha Kennedy 524 22 81 30:18 9:46/M
5 Heather MacLean Canton MI 393 22 85 30:21 9:47/M
6 Rachel Kardel Wyandotte MI 423 20 93 31:55 10:18/M


Male 25 to 29
Total
Place Name City Bib No Age Overall Time Pace
1 Adam Lumley Plymouth MI 425 27 3 18:55 6:06/M
2 Anthony Webb II Monroe MI 507 25 5 19:45 6:22/M
3 David Burnette Trenton MI 392 29 6 19:47 6:23/M
4 Eddie Rould Brownstown MI 518 25 23 24:34 7:55/M
5 Brandon Beaudette Rockwood MI 387 28 53 27:30 8:52/M
6 Gregory Gonzalez Redford MI 510 27 91 31:18 10:06/M
7 Thomas Parent Brownstown MI 436 29 117 35:44 11:32/M


Female 25 to 29
Total
Place Name City Bib No Age Overall Time Pace
1 Michelle Schrader Monroe MI 428 25 43 26:42 8:37/M
2 Sarah Francis Troy MI 495 29 55 27:37 8:55/M
3 Denise Schuck Wyandotte MI 421 27 123 36:50 11:53/M
4 Allison Parent Brownstown MI 435 29 145 47:41 15:23/M


Male 30 to 34
Total
Place Name City Bib No Age Overall Time Pace
1 Brad Knoch 527 34 10 21:57 7:05/M
2 Carl Siggett Jr. Belleville MI 458 32 12 22:34 7:17/M
3 Jeff Gamble Ypsilanti MI 413 33 30 25:17 8:09/M
4 Joseph Smith Rockwood MI 496 34 50 27:20 8:49/M
5 Scott Panin West Bloomfield MI 427 32 84 30:21 9:47/M


Female 30 to 34
Total
Place Name City Bib No Age Overall Time Pace
1 Tara Gamble Ypsilanti MI 412 30 19 23:55 7:43/M
2 Tammy Hess Taylor MI 410 31 39 26:19 8:29/M
3 Ashley Beaudette Rockwood MI 386 31 44 26:43 8:37/M
4 Shayla Cunningham Brownstown MI 538 32 73 29:51 9:38/M
5 Ana Lozoya Woodhaven MI 414 34 97 32:12 10:23/M
6 Megan McClain West Bloomfield MI 426 33 141 43:30 14:02/M
7 Nereyda Villarreal Lincoln Park MI 450 34 153 54:53 17:42/M


Male 35 to 39
Total
Place Name City Bib No Age Overall Time Pace
1 Matt Hoffman La Salle MI 522 36 4 18:57 6:07/M
2 James Leineweber Belleville MI 403 38 11 22:05 7:07/M
3 Jason Cunningham Brownstown MI 539 35 17 23:43 7:39/M
4 Philip Parent Romulus MI 451 35 20 24:06 7:46/M
5 Jeremy Nowland Wyandotte MI 189 38 26 24:51 8:01/M
6 Gary Debacker Brownstown MI 467 39 42 26:41 8:36/M
7 Gary Meone Ypsilanti MI 406 39 48 27:19 8:49/M
8 Andrew Ellis Jr. Allen Park MI 520 37 49 27:20 8:49/M
9 Joseph Marcero South Lyon MI 380 36 56 27:46 8:57/M
10 Philip Brock Brownstown MI 493 35 59 28:00 9:02/M
11 Kevin Tomaszewski Smiths Creek MI 456 39 62 28:12 9:06/M
12 Jeff Benedict Monroe MI 420 37 106 33:19 10:45/M
13 Brian Haynes Trenton MI 409 37 108 33:20 10:45/M
14 Martin Bochenek Garden City MI 434 35 113 34:36 11:10/M


Female 35 to 39
Total
Place Name City Bib No Age Overall Time Pace
1 Cassandra Roupe New Boston MI 533 35 41 26:39 8:36/M
2 Zoe Metro Ypsilanti MI 405 38 52 27:22 8:50/M
3 Jolene Defrank Flat Rock MI 487 39 64 28:16 9:07/M
4 Vanessa Charnock Flat Rock MI 438 39 67 28:26 9:10/M
5 Amy Zulewski Trenton MI 447 36 68 28:51 9:18/M
6 Sarah Siffer Grosse Ile MI 444 35 70 29:10 9:25/M
7 Lisa Anderson Wyandotte MI 114 35 71 29:34 9:32/M
8 Christy Trombetta 535 35 80 30:18 9:46/M
9 Lisa Debacker Brownstown MI 466 39 82 30:19 9:47/M
10 Kathleen Marcero South Lyon MI 379 36 105 33:08 10:41/M
11 Robin Wawersik Dearborn MI 397 39 114 34:42 11:12/M
12 Susan Riddle Brownstown MI 248 39 121 36:40 11:50/M
13 Stacy Bell Woodhaven MI 188 35 122 36:40 11:50/M
14 Heather Czajkowski Brownstown MI 431 39 130 39:32 12:45/M
15 Annette Leone Flat Rock MI 400 36 133 40:34 13:05/M
16 Joy Parent Romulus MI 452 35 143 47:01 15:10/M
17 Kristal Nadolski Southgate MI 503 35 163 59:54 19:19/M


Male 40 to 44
Total
Place Name City Bib No Age Overall Time Pace
1 Dave Zurawski Brownstown MI 441 42 60 28:05 9:04/M
2 Keith Lehman Lincoln Park MI 491 44 69 28:58 9:21/M
3 Daniel Benedict Southgate MI 255 40 107 33:19 10:45/M
4 David Haener New Boston MI 432 44 156 56:27 18:13/M


Female 40 to 44
Total
Place Name City Bib No Age Overall Time Pace
1 Denise Dashner Temperance MI 478 44 36 25:59 8:23/M
2 Colleen Zurawski Brownstown MI 442 40 83 30:20 9:47/M
3 Tracie Nichols Grosse Ile MI 448 41 95 31:57 10:18/M
4 Maureen Brinker Rockwood MI 464 41 99 32:25 10:27/M
5 Anna Hollis Gibraltar MI 469 43 101 33:01 10:39/M
6 Leah Holben Allen Park MI 457 40 103 33:01 10:39/M
7 Dawn Van De Wal Trenton MI 391 42 127 38:53 12:33/M
8 Silvia Hills Brownstown MI 417 44 128 38:58 12:34/M
9 Merrie Druyor Romulus MI 135 41 139 43:18 13:58/M
10 Tessa Cini Wyandotte MI 402 40 140 43:27 14:01/M
11 Jennifer Clark Gibraltar MI 460 41 144 47:14 15:14/M
12 Debbie Nicholl Dearborn MI 130 42 151 50:30 16:17/M
13 Deana McDonald Taylor MI 415 44 159 56:45 18:18/M
14 Deborah Blair-Krosnicki Brownstown MI 473 41 164 1:00:07 19:24/M
15 Angie Pimpedly Gibraltar MI 476 41 165 1:00:11 19:25/M


Male 45 to 49
Total
Place Name City Bib No Age Overall Time Pace
1 Peter Kopera Trenton MI 390 46 9 21:29 6:56/M
2 Charles Phipps Browstown MI 514 45 21 24:06 7:46/M
3 Bob Huey Monroe MI 272 49 32 25:28 8:13/M
4 David Allie Brownstown MI 459 45 46 26:53 8:40/M
5 Jeffrey Garner Brownstown MI 509 46 47 26:59 8:42/M
6 Daniel Harrington Westland MI 449 49 54 27:36 8:54/M
7 Victor Lynch Monroe MI 489 47 100 32:26 10:28/M
8 William Boles Brownstown MI 453 47 126 38:48 12:31/M
9 James Piasecki New Boston MI 180 49 132 39:55 12:53/M


Female 45 to 49
Total
Place Name City Bib No Age Overall Time Pace
1 Vicki Lynch Monroe MI 490 47 45 26:50 8:39/M
2 Deann Ford Riverview MI 454 46 66 28:20 9:08/M
3 Amy Carter Flat Rock MI 488 45 72 29:35 9:33/M
4 Susan Wasko Flat Rock MI 384 49 109 33:35 10:50/M
5 Rhonda Bifano South Lyon MI 516 47 115 35:24 11:25/M
6 Shannon Terch Woodhaven MI 437 45 125 38:09 12:18/M
7 Kelly Faber South Rockwood MI 462 46 137 42:17 13:38/M


Male 50 to 54
Total
Place Name City Bib No Age Overall Time Pace
1 Dave Brown Taylor MI 485 54 7 20:56 6:45/M
2 Steven Lore Ypsilanti MI 411 53 25 24:45 7:59/M
3 Shawn Rowley Canton MI 455 52 31 25:22 8:11/M
4 Domingo Valadez Temperance MI 477 54 38 26:05 8:25/M
5 David Anderson Ypsilanti MI 395 53 75 29:58 9:40/M
6 Joseph Nardone Grosse Ile MI 440 53 110 33:42 10:52/M
7 James Nardone Trenton MI 439 53 111 33:42 10:52/M
8 David Dupuis Warren MI 388 51 119 36:11 11:40/M


Female 50 to 54
Total
Place Name City Bib No Age Overall Time Pace
1 Lenaya Burchfield Grosse Ile MI 483 51 92 31:19 10:06/M
2 Mary Karacson Dundee MI 404 52 124 37:21 12:03/M
3 Cheryl Dostert Carleton MI 461 53 136 42:17 13:38/M
4 Linda McNeil Romulus MI 399 53 138 42:51 13:49/M
5 Cheri Wilson Dearborn Heights M 150 52 152 50:31 16:18/M
6 Lori Weaver Brownstown MI 382 52 154 55:08 17:47/M
7 Linda Davenport Warren MI 389 50 160 56:45 18:18/M
8 Shelba Ziesmer Gibraltar MI 500 53 166 1:01:25 19:49/M


Male 55 to 59
Total
Place Name City Bib No Age Overall Time Pace
1 David Czapor Franklin MI 470 55 15 22:58 7:25/M
2 Paul Lumley Plymouth MI 465 58 74 29:56 9:39/M
3 Fred Burchfield Grosse Ile MI 484 57 89 31:00 10:00/M
4 James Sclater Trenton MI 498 56 112 34:25 11:06/M
5 Warren Palmer Berkley MI 222 55 118 35:58 11:36/M
6 Andrew Linko Brownstown MI 511 55 149 48:43 15:43/M
7 David Weaver Brownstown MI 383 55 155 55:09 17:47/M


Female 55 to 59
Total
Place Name City Bib No Age Overall Time Pace
1 Barb Toth Brownstown MI 475 57 61 28:10 9:05/M
2 Lynn Guzman Plymouth MI 517 55 87 30:32 9:51/M
3 Marie Brown Taylor MI 486 55 88 30:34 9:52/M
4 Catherine Ruiz Wyandotte MI 107 55 94 31:56 10:18/M
5 Cindy Pender Lincoln Park MI 482 58 147 47:49 15:25/M
6 Pamela Newton Lincoln Park MI 481 58 148 48:14 15:34/M
7 Linda Linko Brownstown MI 512 59 157 56:29 18:13/M
8 Barbara Warren Brownstown MI 445 58 158 56:30 18:14/M
9 Michelle Gritter Newport MI 501 56 167 1:01:25 19:49/M


Male 60 to 64
Total
Place Name City Bib No Age Overall Time Pace
1 Lonnie Roark Brownstown MI 474 61 24 24:36 7:56/M
2 Richard Gyolai Woodhaven MI 521 61 28 25:00 8:04/M
3 David Sliwinski Newport MI 472 62 33 25:41 8:17/M
4 Joe Evans Ypsilanti MI 513 60 57 27:50 8:59/M
5 Rickey Tipper Brownstown MI 446 61 150 48:43 15:43/M


Female 60 to 64
Total
Place Name City Bib No Age Overall Time Pace
1 Maggy Zidar Pontiac MI 525 64 90 31:07 10:02/M
2 Kathleen Davis Canton MI 377 62 129 39:09 12:38/M
3 Valerie Kudla Woodhaven MI 479 60 134 40:40 13:07/M
4 Janet Zarbaugh Brownstown MI 494 62 142 45:02 14:32/M
5 Josey Raezler Belleville MI 394 61 146 47:43 15:24/M
6 Joyce Richie Flat Rock MI 502 60 162 57:19 18:29/M


Male 65 to 69
Total
Place Name City Bib No Age Overall Time Pace
1 John Furchak Wyandotte MI 492 65 96 32:08 10:22/M
2 Merrill Lintz Brownstown MI 499 66 131 39:51 12:51/M


Male 75 to 79
Total
Place Name City Bib No Age Overall Time Pace
1 David Lee Grosse Ile MI 519 77 78 30:13 9:45/M


Male 80 & up
Total
Place Name City Bib No Age Overall Time Pace
1 Harrison Hensley Pinckney MI 480 81 135 40:43 13:08/M